Time;durP1;ratioP1;P1;durP2;ratioP2;P2;SDS_P1;SDS_P2;PMS_P1;PMS_P2;Temp;Humidity;BMP_temperature;BMP_pressure;BME280_temperature;BME280_humidity;BME280_pressure;Samples;Min_cycle;Max_cycle;Signal;HPM_P1;HPM_P2
2023/05/08 00:00:58;;;;;;;17.80;16.60;;;9.10;84.70;;;;;;5013449;28;20570;-90
2023/05/08 00:03:24;;;;;;;17.37;16.17;;;9.30;84.30;;;;;;5012124;28;20172;-90
2023/05/08 00:05:49;;;;;;;19.27;17.60;;;9.30;84.10;;;;;;5013408;28;20264;-90
2023/05/08 00:08:15;;;;;;;18.77;17.47;;;9.30;83.70;;;;;;5015088;28;20241;-90
2023/05/08 00:10:40;;;;;;;18.80;17.40;;;9.30;83.40;;;;;;5017594;28;20200;-90
2023/05/08 00:13:06;;;;;;;19.20;17.80;;;9.40;83.20;;;;;;5016101;28;20584;-90
2023/05/08 00:15:31;;;;;;;19.40;18.10;;;9.50;83.10;;;;;;5017380;28;20174;-90
2023/05/08 00:17:57;;;;;;;19.40;18.00;;;9.50;83.00;;;;;;5015939;28;20176;-89
2023/05/08 00:20:23;;;;;;;18.73;17.43;;;9.50;82.80;;;;;;5015764;28;20194;-90
2023/05/08 00:22:48;;;;;;;20.03;18.60;;;9.50;82.90;;;;;;5017210;28;20173;-90
2023/05/08 00:25:14;;;;;;;18.63;17.33;;;9.40;83.00;;;;;;5017359;28;20546;-91
2023/05/08 00:27:39;;;;;;;19.40;18.20;;;9.30;83.00;;;;;;5018536;28;20636;-91
2023/05/08 00:30:06;;;;;;;20.03;18.43;;;9.30;83.10;;;;;;5016180;28;20566;-91
2023/05/08 00:32:32;;;;;;;20.23;18.73;;;9.30;83.40;;;;;;5016059;28;20220;-90
2023/05/08 00:34:57;;;;;;;19.90;18.17;;;9.30;83.50;;;;;;5017459;28;20178;-91
2023/05/08 00:37:23;;;;;;;19.80;18.40;;;9.20;83.70;;;;;;5015585;28;20260;-89
2023/05/08 00:39:48;;;;;;;19.90;18.57;;;9.20;83.90;;;;;;5016535;28;20170;-88
2023/05/08 00:42:14;;;;;;;20.07;18.53;;;9.30;83.60;;;;;;5016678;28;20236;-89
2023/05/08 00:44:40;;;;;;;19.60;18.30;;;9.40;83.10;;;;;;5015345;28;20227;-89
2023/05/08 00:47:07;;;;;;;19.27;17.97;;;9.40;82.50;;;;;;5015421;28;20173;-89
2023/05/08 00:49:34;;;;;;;20.40;18.80;;;9.40;82.30;;;;;;5016474;28;20185;-89
2023/05/08 00:52:01;;;;;;;20.03;18.80;;;9.40;81.90;;;;;;5016401;28;20256;-89
2023/05/08 00:54:27;;;;;;;19.53;18.23;;;9.40;81.50;;;;;;5017006;28;20179;-89
2023/05/08 00:56:53;;;;;;;20.83;19.33;;;9.40;81.40;;;;;;5016537;28;20634;-89
2023/05/08 00:59:21;;;;;;;19.40;18.10;;;9.40;81.00;;;;;;5015173;28;20200;-89
2023/05/08 01:01:48;;;;;;;21.03;19.57;;;9.40;80.60;;;;;;5015066;28;20750;-89
2023/05/08 01:04:14;;;;;;;21.37;19.87;;;9.40;80.40;;;;;;5016237;28;20256;-89
2023/05/08 01:06:40;;;;;;;20.93;19.43;;;9.40;80.10;;;;;;5016127;28;20174;-90
2023/05/08 01:09:06;;;;;;;21.27;19.63;;;9.40;79.80;;;;;;5016120;28;20173;-90
2023/05/08 01:11:38;;;;;;;21.57;20.17;;;9.40;79.80;;;;;;5016083;28;20200;-89
2023/05/08 01:14:21;;;;;;;21.57;20.07;;;9.50;78.70;;;;;;5016271;28;20161;-89
2023/05/08 01:17:07;;;;;;;21.23;19.83;;;9.50;78.70;;;;;;5016303;28;20216;-90
2023/05/08 01:19:57;;;;;;;21.40;20.00;;;9.50;78.70;;;;;;5013629;28;20530;-89
2023/05/08 01:22:48;;;;;;;21.63;20.03;;;9.50;78.20;;;;;;5016136;28;20636;-89
2023/05/08 01:25:44;;;;;;;19.77;18.47;;;9.50;78.00;;;;;;5015920;28;20644;-89
2023/05/08 01:28:25;;;;;;;21.40;19.90;;;9.40;77.80;;;;;;5016165;28;20524;-89
2023/05/08 01:31:18;;;;;;;21.60;19.90;;;9.40;77.90;;;;;;5015852;28;20200;-89
2023/05/08 01:33:58;;;;;;;22.17;20.67;;;9.30;77.80;;;;;;5015831;28;20227;-90
2023/05/08 01:36:43;;;;;;;21.50;20.00;;;9.30;77.90;;;;;;5016021;28;20157;-90
2023/05/08 01:39:42;;;;;;;21.13;19.77;;;9.20;77.90;;;;;;5015877;28;20169;-90
2023/05/08 01:42:32;;;;;;;21.50;20.13;;;9.20;77.80;;;;;;5017483;28;20294;-89
2023/05/08 01:45:09;;;;;;;20.23;18.93;;;9.20;77.90;;;;;;5015294;28;20182;-90
2023/05/08 01:47:37;;;;;;;22.23;20.83;;;9.20;77.80;;;;;;5015805;28;20157;-90
2023/05/08 01:50:06;;;;;;;21.57;20.03;;;9.20;77.80;;;;;;5014026;28;20195;-90
2023/05/08 01:52:42;;;;;;;20.53;19.23;;;9.20;77.90;;;;;;5015264;28;20221;-89
2023/05/08 01:55:15;;;;;;;22.10;20.33;;;9.10;77.90;;;;;;5015342;28;20164;-89
2023/05/08 01:57:47;;;;;;;20.20;18.90;;;9.10;78.10;;;;;;5015237;28;20158;-90
2023/05/08 02:00:15;;;;;;;21.43;19.83;;;9.00;78.20;;;;;;5015417;28;20209;-90
2023/05/08 02:02:42;;;;;;;21.33;19.63;;;9.00;78.60;;;;;;5015180;28;20169;-89
2023/05/08 02:05:08;;;;;;;22.10;20.50;;;8.90;78.70;;;;;;5015090;28;20177;-89
2023/05/08 02:07:37;;;;;;;20.50;19.20;;;8.90;78.80;;;;;;5015334;28;20193;-89
2023/05/08 02:10:04;;;;;;;21.57;19.90;;;8.80;79.00;;;;;;5014997;28;20201;-89
2023/05/08 02:12:31;;;;;;;21.20;19.70;;;8.70;79.30;;;;;;5014884;28;20200;-89
2023/05/08 02:14:59;;;;;;;21.23;19.80;;;8.70;79.50;;;;;;5013728;28;20570;-89
2023/05/08 02:17:26;;;;;;;21.50;19.80;;;8.70;79.60;;;;;;5013636;28;20177;-89
2023/05/08 02:19:55;;;;;;;21.30;19.80;;;8.70;79.70;;;;;;5014801;28;20545;-88
2023/05/08 02:22:22;;;;;;;21.37;19.87;;;8.60;79.90;;;;;;5014832;28;20181;-89
2023/05/08 02:24:52;;;;;;;20.90;19.50;;;8.50;80.20;;;;;;5015194;28;20177;-89
2023/05/08 02:27:20;;;;;;;19.53;18.23;;;8.50;80.30;;;;;;5014666;28;20656;-89
2023/05/08 02:29:46;;;;;;;19.23;17.80;;;8.40;80.50;;;;;;5013212;28;20698;-89
2023/05/08 02:32:13;;;;;;;20.70;19.30;;;8.30;80.60;;;;;;5013059;28;20679;-89
2023/05/08 02:34:40;;;;;;;19.23;17.93;;;8.30;80.80;;;;;;5014520;28;20248;-89
2023/05/08 02:37:06;;;;;;;18.67;17.37;;;8.40;80.70;;;;;;5014715;28;20161;-89
2023/05/08 02:39:34;;;;;;;19.50;18.17;;;8.30;80.80;;;;;;5013174;28;20173;-89
2023/05/08 02:42:00;;;;;;;18.07;16.87;;;8.30;80.80;;;;;;5014403;28;20197;-89
2023/05/08 02:44:26;;;;;;;19.80;18.30;;;8.30;80.90;;;;;;5014549;28;20524;-89
2023/05/08 02:47:12;;;;;;;20.30;18.70;;;8.30;80.90;;;;;;5014536;28;20767;-89
2023/05/08 02:50:03;;;;;;;20.17;18.70;;;8.20;81.10;;;;;;5014249;28;20193;-89
2023/05/08 02:52:35;;;;;;;20.17;18.57;;;8.20;81.20;;;;;;5005177;28;20225;-89
2023/05/08 02:55:30;;;;;;;19.87;18.57;;;8.10;81.30;;;;;;5014170;28;20169;-89
2023/05/08 02:58:15;;;;;;;19.23;17.80;;;8.10;81.30;;;;;;5005255;28;20190;-89
2023/05/08 03:00:47;;;;;;;19.50;18.07;;;8.00;81.30;;;;;;5014252;28;20201;-89
2023/05/08 03:03:25;;;;;;;19.80;18.30;;;8.20;81.20;;;;;;5014019;28;20540;-90
2023/05/08 03:05:56;;;;;;;19.63;18.27;;;8.10;81.00;;;;;;5012816;28;20262;-89
2023/05/08 03:08:28;;;;;;;19.93;18.53;;;8.10;81.10;;;;;;5014006;28;20620;-89
2023/05/08 03:10:57;;;;;;;19.80;18.40;;;8.00;81.10;;;;;;5013916;28;20280;-89
2023/05/08 03:13:26;;;;;;;20.83;19.30;;;8.00;81.10;;;;;;5013940;28;20228;-89
2023/05/08 03:15:55;;;;;;;19.97;18.47;;;8.00;81.20;;;;;;5013979;28;20201;-89
2023/05/08 03:18:24;;;;;;;19.77;18.27;;;8.00;81.20;;;;;;5013928;28;20201;-90
2023/05/08 03:20:53;;;;;;;19.20;18.00;;;7.90;81.30;;;;;;5013630;28;20276;-89
2023/05/08 03:23:22;;;;;;;20.23;18.73;;;7.80;81.40;;;;;;5013717;28;20177;-89
2023/05/08 03:25:48;;;;;;;20.13;18.70;;;7.90;81.30;;;;;;5013685;28;20683;-90
2023/05/08 03:28:14;;;;;;;20.40;18.97;;;7.90;81.20;;;;;;5013774;28;20193;-89
2023/05/08 03:30:41;;;;;;;20.77;19.27;;;7.90;81.20;;;;;;5013775;28;20204;-89
2023/05/08 03:33:10;;;;;;;20.47;18.47;;;7.90;81.40;;;;;;5013612;28;20177;-89
2023/05/08 03:35:37;;;;;;;19.47;18.20;;;7.80;81.40;;;;;;5012400;28;20181;-90
2023/05/08 03:38:04;;;;;;;19.90;18.50;;;7.90;81.40;;;;;;5013670;28;20205;-89
2023/05/08 03:40:30;;;;;;;18.20;16.90;;;7.90;81.40;;;;;;5012592;28;20296;-89
2023/05/08 03:42:56;;;;;;;18.40;17.10;;;8.00;81.20;;;;;;5012910;28;20174;-89
2023/05/08 03:45:24;;;;;;;19.13;17.57;;;8.30;80.80;;;;;;5012373;28;20227;-89
2023/05/08 03:47:52;;;;;;;18.53;17.23;;;8.50;79.90;;;;;;5013486;28;20575;-89
2023/05/08 03:50:18;;;;;;;17.70;16.40;;;8.50;79.30;;;;;;5013561;28;20208;-89
2023/05/08 03:52:44;;;;;;;19.03;17.83;;;8.60;79.00;;;;;;5013974;28;20217;-89
2023/05/08 03:55:10;;;;;;;20.40;18.83;;;8.50;79.00;;;;;;5012303;28;20184;-89
2023/05/08 03:57:55;;;;;;;22.83;18.30;;;8.50;79.20;;;;;;5013386;28;20256;-89
2023/05/08 04:00:34;;;;;;;19.70;18.40;;;8.50;79.20;;;;;;5013528;28;20185;-89
2023/05/08 04:03:16;;;;;;;20.33;18.83;;;8.50;79.30;;;;;;5012146;28;20546;-89
2023/05/08 04:06:07;;;;;;;19.93;18.53;;;8.50;79.40;;;;;;5013618;28;20164;-89
2023/05/08 04:08:42;;;;;;;19.73;18.33;;;8.50;79.50;;;;;;5011124;28;20276;-89
2023/05/08 04:11:16;;;;;;;20.37;18.87;;;8.50;79.60;;;;;;5013169;28;20208;-89
2023/05/08 04:13:48;;;;;;;18.50;17.20;;;8.40;79.80;;;;;;5013506;28;20620;-89
2023/05/08 04:16:21;;;;;;;19.50;17.77;;;8.40;79.90;;;;;;5011994;28;20177;-89
2023/05/08 04:18:49;;;;;;;19.77;18.10;;;8.40;80.10;;;;;;5013465;28;20362;-89
2023/05/08 04:21:21;;;;;;;19.70;18.30;;;8.30;80.50;;;;;;5011991;28;20201;-88
2023/05/08 04:23:49;;;;;;;19.00;17.60;;;8.30;80.80;;;;;;5013233;28;20256;-89
2023/05/08 04:26:16;;;;;;;18.50;17.00;;;8.30;80.80;;;;;;5013127;28;20173;-89
2023/05/08 04:28:43;;;;;;;19.40;17.63;;;8.40;80.80;;;;;;5013325;28;20181;-89
2023/05/08 04:31:09;;;;;;;17.30;15.90;;;8.50;80.60;;;;;;5012913;28;20205;-88
2023/05/08 04:33:35;;;;;;;17.00;15.70;;;8.50;80.50;;;;;;5012980;28;20227;-89
2023/05/08 04:36:02;;;;;;;16.10;14.73;;;8.60;80.50;;;;;;5013014;28;20177;-89
2023/05/08 04:38:27;;;;;;;16.53;15.43;;;8.60;80.50;;;;;;5012983;28;20205;-89
2023/05/08 04:40:53;;;;;;;17.37;15.97;;;8.60;80.20;;;;;;5012845;28;20251;-89
2023/05/08 04:43:19;;;;;;;17.97;16.13;;;8.70;80.20;;;;;;5012885;28;20201;-89
2023/05/08 04:45:44;;;;;;;18.10;16.67;;;8.70;80.50;;;;;;5011676;28;20547;-89
2023/05/08 04:48:10;;;;;;;18.43;17.07;;;8.70;80.50;;;;;;5013100;28;20193;-89
2023/05/08 04:50:35;;;;;;;18.00;16.80;;;8.70;80.30;;;;;;5013091;28;20272;-90
2023/05/08 04:53:01;;;;;;;18.67;17.17;;;8.70;80.00;;;;;;5013079;28;20340;-89
2023/05/08 04:55:26;;;;;;;17.87;16.73;;;8.80;79.70;;;;;;5015922;28;20725;-89
2023/05/08 04:57:52;;;;;;;18.40;16.90;;;8.90;79.50;;;;;;5015136;28;20621;-89
2023/05/08 05:00:18;;;;;;;17.90;16.70;;;9.00;79.20;;;;;;5016210;28;20201;-90
2023/05/08 05:02:43;;;;;;;17.93;16.73;;;9.00;78.80;;;;;;5015524;28;20531;-90
2023/05/08 05:05:10;;;;;;;18.10;16.67;;;9.10;78.60;;;;;;5016461;28;20214;-89
2023/05/08 05:07:35;;;;;;;19.03;17.43;;;9.10;78.20;;;;;;5016177;28;20184;-89
2023/05/08 05:10:01;;;;;;;18.70;16.90;;;9.00;78.20;;;;;;5016126;28;20177;-90
2023/05/08 05:12:26;;;;;;;18.27;17.07;;;9.10;78.20;;;;;;5016288;28;20226;-90
2023/05/08 05:14:52;;;;;;;18.30;16.83;;;9.20;77.90;;;;;;5016388;28;20174;-90
2023/05/08 05:17:17;;;;;;;18.23;16.93;;;9.20;77.60;;;;;;5016375;28;20223;-91
2023/05/08 05:19:43;;;;;;;18.63;17.27;;;9.20;77.30;;;;;;5016100;28;20178;-90
2023/05/08 05:22:08;;;;;;;17.60;16.50;;;9.30;77.00;;;;;;5016170;28;20201;-90
2023/05/08 05:24:34;;;;;;;17.20;16.00;;;9.30;76.90;;;;;;5016105;28;20287;-90
2023/05/08 05:27:01;;;;;;;17.83;16.53;;;9.30;77.00;;;;;;5016118;28;20177;-90
2023/05/08 05:29:27;;;;;;;18.27;16.70;;;9.40;76.80;;;;;;5015677;28;20636;-90
2023/05/08 05:31:52;;;;;;;18.97;17.67;;;9.40;76.90;;;;;;5015627;28;20323;-90
2023/05/08 05:34:18;;;;;;;19.60;18.23;;;9.50;76.90;;;;;;5014463;28;20180;-90
2023/05/08 05:36:43;;;;;;;20.23;18.73;;;9.50;76.50;;;;;;5015718;28;20224;-90
2023/05/08 05:39:09;;;;;;;19.60;18.30;;;9.60;76.30;;;;;;5015774;28;20182;-90
2023/05/08 05:41:35;;;;;;;20.23;18.23;;;9.60;76.20;;;;;;5015536;28;20200;-90
2023/05/08 05:44:01;;;;;;;18.80;17.50;;;9.60;75.80;;;;;;5015510;28;20177;-90
2023/05/08 05:46:31;;;;;;;18.00;16.33;;;9.70;76.40;;;;;;5015530;28;20667;-90
2023/05/08 05:48:57;;;;;;;16.80;15.60;;;9.70;76.50;;;;;;5014027;28;20562;-90
2023/05/08 05:51:23;;;;;;;17.07;15.90;;;9.80;76.80;;;;;;5015321;28;20236;-87
2023/05/08 05:53:48;;;;;;;18.70;17.27;;;9.80;76.30;;;;;;5015011;28;20635;-88
2023/05/08 05:56:14;;;;;;;18.37;17.07;;;9.90;76.30;;;;;;5015573;28;20169;-90
2023/05/08 05:58:43;;;;;;;17.67;16.27;;;9.90;75.60;;;;;;5015271;28;20706;-89
2023/05/08 06:01:09;;;;;;;17.83;16.40;;;10.00;76.20;;;;;;5013954;28;20193;-91
2023/05/08 06:03:34;;;;;;;19.17;17.60;;;10.00;76.20;;;;;;5014075;28;20287;-90
2023/05/08 06:06:00;;;;;;;19.20;17.90;;;10.00;76.00;;;;;;5014711;28;20178;-89
2023/05/08 06:08:25;;;;;;;17.97;16.57;;;10.10;75.80;;;;;;5015151;28;20196;-89
2023/05/08 06:10:51;;;;;;;20.40;18.63;;;10.10;75.30;;;;;;5015965;28;20216;-91
2023/05/08 06:13:17;;;;;;;18.70;17.47;;;10.20;75.60;;;;;;5016194;28;20178;-90
2023/05/08 06:15:42;;;;;;;19.80;18.50;;;10.10;75.20;;;;;;5014989;28;20682;-90
2023/05/08 06:18:08;;;;;;;18.47;16.97;;;10.20;75.90;;;;;;5017234;28;20179;-90
2023/05/08 06:20:38;;;;;;;20.10;18.60;;;10.30;75.90;;;;;;5013710;28;20201;-89
2023/05/08 06:23:04;;;;;;;18.77;17.40;;;10.30;75.60;;;;;;5014459;28;20178;-90
2023/05/08 06:25:30;;;;;;;20.03;18.53;;;10.30;75.00;;;;;;5014802;28;20170;-90
2023/05/08 06:27:55;;;;;;;20.10;18.60;;;10.40;75.40;;;;;;5015104;28;20239;-90
2023/05/08 06:30:21;;;;;;;20.30;18.47;;;10.50;75.20;;;;;;5014532;28;20203;-91
2023/05/08 06:32:47;;;;;;;19.87;18.47;;;10.50;75.20;;;;;;5013681;28;20209;-89
2023/05/08 06:35:17;;;;;;;18.93;17.63;;;10.70;75.70;;;;;;5014557;28;20578;-90
2023/05/08 06:37:43;;;;;;;19.47;18.07;;;10.70;75.10;;;;;;5015563;28;20162;-91
2023/05/08 06:40:09;;;;;;;18.93;17.43;;;10.70;74.30;;;;;;5013150;28;20193;-90
2023/05/08 06:42:35;;;;;;;18.17;16.77;;;10.90;75.10;;;;;;5014520;28;20212;-90
2023/05/08 06:45:01;;;;;;;19.17;17.57;;;10.90;74.20;;;;;;5014506;28;20206;-90
2023/05/08 06:47:27;;;;;;;19.43;18.03;;;10.90;74.30;;;;;;5014423;28;20256;-89
2023/05/08 06:49:52;;;;;;;19.77;18.27;;;10.80;74.20;;;;;;5013405;28;20308;-90
2023/05/08 06:52:19;;;;;;;21.07;19.27;;;10.80;74.30;;;;;;5014284;28;20331;-90
2023/05/08 06:54:45;;;;;;;19.60;18.07;;;10.90;74.50;;;;;;5014252;28;20173;-91
2023/05/08 06:57:13;;;;;;;20.87;19.03;;;11.00;74.60;;;;;;5014160;28;20173;-89
2023/05/08 06:59:39;;;;;;;20.70;18.87;;;11.10;74.20;;;;;;5014170;28;20722;-90
2023/05/08 07:02:05;;;;;;;21.57;19.93;;;11.00;73.20;;;;;;5014350;28;20225;-90
2023/05/08 07:04:30;;;;;;;20.93;19.17;;;11.10;73.30;;;;;;5014247;28;20554;-89
2023/05/08 07:06:56;;;;;;;19.93;18.50;;;11.00;73.40;;;;;;5012859;28;20542;-89
2023/05/08 07:09:21;;;;;;;21.93;19.73;;;11.00;74.10;;;;;;5013972;28;20209;-89
2023/05/08 07:11:47;;;;;;;21.00;19.40;;;11.20;74.20;;;;;;5013892;28;20621;-90
2023/05/08 07:14:12;;;;;;;19.97;18.57;;;11.30;73.60;;;;;;5013941;28;20231;-89
2023/05/08 07:16:38;;;;;;;21.00;19.27;;;11.40;73.70;;;;;;5013955;28;20212;-89
2023/05/08 07:19:04;;;;;;;20.80;19.27;;;11.50;73.30;;;;;;5012171;28;20264;-90
2023/05/08 07:21:29;;;;;;;21.40;19.53;;;11.60;73.00;;;;;;5012663;28;20240;-90
2023/05/08 07:23:55;;;;;;;21.50;19.50;;;11.70;73.50;;;;;;5013683;28;20176;-89
2023/05/08 07:26:21;;;;;;;21.03;19.00;;;11.70;72.60;;;;;;5012562;28;20177;-90
2023/05/08 07:28:47;;;;;;;21.10;19.30;;;11.80;72.40;;;;;;5013905;28;20575;-90
2023/05/08 07:31:13;;;;;;;21.67;20.17;;;11.90;73.00;;;;;;5012220;28;20577;-90
2023/05/08 07:33:39;;;;;;;21.87;20.27;;;11.90;72.00;;;;;;5012452;28;20186;-91
2023/05/08 07:36:05;;;;;;;21.80;19.93;;;12.00;72.20;;;;;;5013757;28;20216;-91
2023/05/08 07:38:30;;;;;;;21.57;19.97;;;12.10;71.90;;;;;;5013591;28;20173;-89
2023/05/08 07:40:56;;;;;;;22.47;20.57;;;12.20;73.00;;;;;;5012284;28;20202;-90
2023/05/08 07:43:22;;;;;;;21.80;20.13;;;12.30;72.50;;;;;;5013507;28;20173;-90
2023/05/08 07:45:48;;;;;;;22.20;20.60;;;12.40;72.20;;;;;;5013914;28;20717;-90
2023/05/08 07:48:14;;;;;;;21.73;20.10;;;12.40;72.30;;;;;;5012335;28;20193;-90
2023/05/08 07:50:39;;;;;;;23.77;21.50;;;12.50;72.50;;;;;;5012516;28;20196;-90
2023/05/08 07:53:05;;;;;;;23.53;21.83;;;12.50;72.40;;;;;;5012352;28;20177;-87
2023/05/08 07:55:31;;;;;;;23.47;21.67;;;12.30;71.00;;;;;;5012868;28;20179;-90
2023/05/08 07:57:57;;;;;;;23.70;22.00;;;12.10;71.80;;;;;;5012228;28;20640;-90
2023/05/08 08:00:22;;;;;;;23.20;21.23;;;12.10;72.30;;;;;;5013818;28;20220;-90
2023/05/08 08:02:48;;;;;;;23.03;21.43;;;12.20;72.40;;;;;;5013643;28;20177;-91
2023/05/08 08:05:13;;;;;;;25.07;22.67;;;12.30;72.10;;;;;;5012304;28;20713;-90
2023/05/08 08:07:39;;;;;;;24.97;23.07;;;12.50;71.90;;;;;;5013556;28;20300;-90
2023/05/08 08:10:05;;;;;;;24.43;22.43;;;12.40;71.30;;;;;;5012379;28;20205;-91
2023/05/08 08:12:31;;;;;;;24.90;22.93;;;12.60;72.20;;;;;;5012826;28;20201;-90
2023/05/08 08:14:56;;;;;;;24.80;23.00;;;12.70;72.20;;;;;;5012312;28;20181;-90
2023/05/08 08:17:22;;;;;;;24.47;22.67;;;12.90;72.20;;;;;;5012886;28;20181;-92
2023/05/08 08:19:48;;;;;;;26.43;24.53;;;13.00;71.60;;;;;;5012676;28;20182;-91
2023/05/08 08:22:14;;;;;;;23.80;21.93;;;12.90;70.90;;;;;;5013780;28;20643;-90
2023/05/08 08:24:39;;;;;;;26.63;24.33;;;12.80;70.10;;;;;;5013154;28;20181;-90
2023/05/08 08:27:05;;;;;;;26.23;24.23;;;12.80;70.70;;;;;;5013501;28;20200;-90
2023/05/08 08:29:30;;;;;;;25.73;23.50;;;12.70;70.60;;;;;;5015172;28;20227;-90
2023/05/08 08:31:56;;;;;;;26.23;24.23;;;12.60;70.90;;;;;;5015791;28;20209;-90
2023/05/08 08:34:22;;;;;;;25.07;23.27;;;12.60;70.80;;;;;;5017217;28;20182;-90
2023/05/08 08:36:48;;;;;;;25.77;23.80;;;12.70;71.40;;;;;;5017622;28;20653;-91
2023/05/08 08:39:13;;;;;;;24.10;22.20;;;13.00;70.80;;;;;;5015806;28;20227;-91
2023/05/08 08:41:39;;;;;;;23.10;21.47;;;13.30;70.30;;;;;;5017539;28;20193;-90
2023/05/08 08:44:05;;;;;;;24.53;22.73;;;13.60;70.00;;;;;;5017015;28;20252;-91
2023/05/08 08:46:34;;;;;;;25.77;23.53;;;13.80;69.10;;;;;;5015870;28;20182;-91
2023/05/08 08:49:03;;;;;;;23.17;21.40;;;13.80;68.10;;;;;;5016441;28;20581;-89
2023/05/08 08:51:39;;;;;;;23.40;21.60;;;14.00;68.10;;;;;;5015257;28;20581;-89
2023/05/08 08:54:11;;;;;;;22.73;21.03;;;14.20;68.30;;;;;;5017142;28;20158;-92
2023/05/08 08:56:41;;;;;;;23.43;21.50;;;14.10;67.50;;;;;;5015835;28;20647;-90
2023/05/08 08:59:08;;;;;;;23.40;21.67;;;14.30;68.70;;;;;;5019365;28;20166;-89
2023/05/08 09:01:36;;;;;;;25.97;23.97;;;14.30;67.20;;;;;;5016212;28;20208;-90
2023/05/08 09:04:01;;;;;;;26.23;23.90;;;14.30;66.40;;;;;;5016568;28;20256;-90
2023/05/08 09:06:28;;;;;;;26.00;24.00;;;14.30;67.50;;;;;;5017174;28;20249;-91
2023/05/08 09:08:57;;;;;;;25.10;23.30;;;14.40;66.80;;;;;;5015296;28;20181;-91
2023/05/08 09:11:23;;;;;;;25.07;23.10;;;14.60;67.10;;;;;;5016561;28;20698;-90
2023/05/08 09:13:50;;;;;;;27.70;25.10;;;14.50;65.90;;;;;;5015446;28;20659;-91
2023/05/08 09:16:16;;;;;;;26.13;24.00;;;14.60;65.80;;;;;;5014959;28;20177;-90
2023/05/08 09:18:42;;;;;;;25.70;23.70;;;14.70;66.20;;;;;;5016385;28;20197;-90
2023/05/08 09:21:08;;;;;;;25.40;22.98;;;14.80;64.60;;;;;;5016176;28;20664;-90
2023/05/08 09:23:53;;;;;;;24.55;22.67;;;15.00;64.50;;;;;;5016425;28;20256;-88
2023/05/08 09:26:27;;;;;;;25.95;23.77;;;15.10;64.40;;;;;;5014784;28;20722;-88
2023/05/08 09:29:06;;;;;;;24.42;22.63;;;15.20;63.90;;;;;;5014585;28;20178;-88
2023/05/08 09:31:38;;;;;;;24.58;22.77;;;15.40;63.90;;;;;;5015735;28;20208;-89
2023/05/08 09:34:06;;;;;;;24.60;22.73;;;15.50;63.90;;;;;;5015142;28;20185;-88
2023/05/08 09:36:33;;;;;;;24.48;22.75;;;15.10;63.20;;;;;;5015671;28;20176;-88
2023/05/08 09:38:59;;;;;;;26.02;23.92;;;15.10;65.00;;;;;;5015706;28;20173;-88
2023/05/08 09:41:25;;;;;;;26.48;24.48;;;15.20;64.20;;;;;;5013477;28;20231;-88
2023/05/08 09:44:04;;;;;;;24.52;22.63;;;15.30;64.30;;;;;;5014715;28;20599;-88
2023/05/08 09:46:32;;;;;;;25.77;23.88;;;15.30;63.60;;;;;;5014714;28;20650;-88
2023/05/08 09:48:59;;;;;;;27.10;24.83;;;15.20;62.60;;;;;;5014573;28;20197;-88
2023/05/08 09:51:27;;;;;;;26.40;24.33;;;15.30;64.20;;;;;;5015383;28;20205;-88
2023/05/08 09:53:53;;;;;;;27.15;24.83;;;15.50;63.30;;;;;;5014972;28;20174;-87
2023/05/08 09:56:32;;;;;;;26.00;23.65;;;15.60;63.80;;;;;;5014132;28;20652;-87
2023/05/08 09:58:58;;;;;;;25.92;23.92;;;15.90;64.40;;;;;;5015279;28;20252;-89
2023/05/08 10:01:27;;;;;;;26.02;24.05;;;16.00;63.20;;;;;;5014071;28;20667;-88
2023/05/08 10:03:53;;;;;;;25.38;23.42;;;15.90;62.80;;;;;;5013978;28;20185;-88
2023/05/08 10:06:18;;;;;;;27.10;24.88;;;15.90;61.80;;;;;;5015095;28;20517;-88
2023/05/08 10:08:45;;;;;;;25.38;23.58;;;15.90;63.30;;;;;;5013898;28;20181;-88
2023/05/08 10:11:18;;;;;;;25.35;23.02;;;15.90;62.50;;;;;;5013665;28;20208;-85
2023/05/08 10:13:45;;;;;;;24.70;22.90;;;16.10;63.00;;;;;;5013632;28;20178;-85
2023/05/08 10:16:15;;;;;;;24.58;22.88;;;16.10;62.20;;;;;;5013674;28;20208;-85
2023/05/08 10:18:49;;;;;;;26.05;24.08;;;16.10;61.40;;;;;;5014434;28;20173;-85
2023/05/08 10:21:16;;;;;;;24.75;22.98;;;16.30;62.00;;;;;;5015003;28;20192;-85
2023/05/08 10:23:45;;;;;;;25.42;23.63;;;16.40;61.00;;;;;;5014116;28;20185;-85
2023/05/08 10:26:21;;;;;;;25.83;23.85;;;16.30;61.00;;;;;;5015109;28;20170;-86
2023/05/08 10:28:56;;;;;;;23.77;21.90;;;16.50;59.60;;;;;;5013467;28;20200;-86
2023/05/08 10:31:24;;;;;;;23.83;22.23;;;16.40;59.20;;;;;;5014462;28;20201;-87
2023/05/08 10:33:53;;;;;;;23.65;21.75;;;16.70;60.30;;;;;;5014579;28;20227;-85
2023/05/08 10:36:20;;;;;;;25.65;23.45;;;16.90;59.10;;;;;;5014543;28;20174;-85
2023/05/08 10:38:46;;;;;;;22.42;20.63;;;16.90;58.70;;;;;;5014473;28;20640;-85
2023/05/08 10:41:12;;;;;;;22.85;21.05;;;17.00;58.40;;;;;;5014314;28;20246;-85
2023/05/08 10:43:41;;;;;;;22.05;20.08;;;17.00;57.40;;;;;;5014378;28;20597;-86
2023/05/08 10:46:15;;;;;;;19.27;17.75;;;17.00;57.20;;;;;;5013523;28;20180;-86
2023/05/08 10:48:58;;;;;;;19.17;17.65;;;17.30;57.80;;;;;;5013271;28;20192;-85
2023/05/08 10:52:06;;;;;;;20.10;18.15;;;17.50;56.70;;;;;;5012913;28;20299;-85
2023/05/08 10:55:03;;;;;;;18.67;17.38;;;17.70;55.90;;;;;;5013241;28;20180;-86
2023/05/08 10:57:30;;;;;;;19.75;18.25;;;18.00;57.00;;;;;;5013280;28;20174;-85
2023/05/08 10:59:56;;;;;;;19.13;17.63;;;18.10;54.60;;;;;;5013801;28;20178;-84
2023/05/08 11:02:29;;;;;;;22.65;21.05;;;18.10;54.00;;;;;;5014717;28;20180;-85
2023/05/08 11:04:55;;;;;;;19.27;17.67;;;17.80;53.60;;;;;;5014189;28;20169;-85
2023/05/08 11:07:30;;;;;;;19.45;17.95;;;17.80;55.10;;;;;;5014750;28;20189;-85
2023/05/08 11:10:06;;;;;;;21.40;19.55;;;18.10;54.00;;;;;;5013352;28;20180;-85
2023/05/08 11:12:32;;;;;;;20.38;18.65;;;18.20;55.10;;;;;;5013296;28;20197;-85
2023/05/08 11:15:04;;;;;;;24.45;22.52;;;18.20;54.20;;;;;;5013058;28;20172;-85
2023/05/08 11:17:31;;;;;;;23.30;21.40;;;18.20;53.40;;;;;;5014269;28;20175;-85
2023/05/08 11:20:06;;;;;;;22.55;20.80;;;18.20;54.00;;;;;;5014182;28;20176;-85
2023/05/08 11:22:32;;;;;;;24.02;22.33;;;18.20;52.80;;;;;;5014039;28;20168;-85
2023/05/08 11:25:00;;;;;;;23.73;21.92;;;18.10;52.90;;;;;;5012508;28;20568;-85
2023/05/08 11:27:36;;;;;;;22.80;21.30;;;18.20;54.70;;;;;;5013881;28;20256;-85
2023/05/08 11:30:19;;;;;;;23.52;21.92;;;18.30;52.60;;;;;;5013237;28;20535;-85
2023/05/08 11:33:03;;;;;;;16.58;15.57;;;18.40;52.70;;;;;;5012322;28;20201;-85
2023/05/08 11:36:06;;;;;;;17.90;16.48;;;18.50;54.80;;;;;;5012466;28;20176;-85
2023/05/08 11:38:37;;;;;;;18.15;16.83;;;18.80;52.80;;;;;;5007567;28;20620;-85
2023/05/08 11:41:21;;;;;;;16.92;15.82;;;19.10;51.60;;;;;;5014803;28;20198;-86
2023/05/08 11:43:56;;;;;;;16.70;15.50;;;19.20;52.40;;;;;;5014019;28;20234;-85
2023/05/08 11:46:21;;;;;;;16.50;15.30;;;19.40;51.60;;;;;;5013589;28;20184;-85
2023/05/08 11:48:47;;;;;;;17.42;15.77;;;19.40;50.30;;;;;;5015291;28;20193;-86
2023/05/08 11:51:18;;;;;;;16.73;15.57;;;19.40;51.80;;;;;;5014988;28;20240;-87
2023/05/08 11:53:44;;;;;;;16.83;15.43;;;19.50;51.10;;;;;;5013744;28;20165;-85
2023/05/08 11:56:09;;;;;;;16.40;15.27;;;19.60;51.00;;;;;;5016007;28;20178;-85
2023/05/08 11:58:35;;;;;;;17.20;15.52;;;19.50;48.90;;;;;;5014017;28;20533;-85
2023/05/08 12:01:01;;;;;;;19.98;18.58;;;19.50;50.90;;;;;;5013706;28;20216;-85
2023/05/08 12:03:27;;;;;;;20.20;18.85;;;19.60;49.50;;;;;;5013374;28;20227;-86
2023/05/08 12:05:57;;;;;;;20.15;18.85;;;19.30;49.00;;;;;;5017486;28;20183;-85
2023/05/08 12:08:23;;;;;;;20.02;18.60;;;19.40;49.80;;;;;;5019633;28;20177;-85
2023/05/08 12:10:53;;;;;;;20.52;18.92;;;19.60;49.70;;;;;;5017736;28;20223;-85
2023/05/08 12:13:28;;;;;;;21.13;19.52;;;19.60;47.50;;;;;;5018667;28;20169;-85
2023/05/08 12:15:55;;;;;;;20.48;18.85;;;19.50;49.80;;;;;;5018075;28;20177;-85
2023/05/08 12:18:23;;;;;;;20.52;18.98;;;19.60;47.70;;;;;;5017981;28;20184;-86
2023/05/08 12:20:53;;;;;;;19.60;18.40;;;20.10;48.20;;;;;;5017783;28;20291;-86
2023/05/08 12:23:19;;;;;;;20.35;19.05;;;20.20;48.20;;;;;;5019560;28;20169;-86
2023/05/08 12:25:45;;;;;;;20.73;19.13;;;20.10;48.40;;;;;;5017762;28;20181;-85
2023/05/08 12:28:10;;;;;;;20.50;19.02;;;19.90;47.10;;;;;;5019540;28;20173;-85
2023/05/08 12:30:36;;;;;;;20.58;19.08;;;20.10;48.40;;;;;;5018777;28;20193;-85
2023/05/08 12:33:04;;;;;;;19.95;18.40;;;20.20;47.00;;;;;;5018011;28;20291;-86
2023/05/08 12:35:31;;;;;;;19.63;18.17;;;20.20;48.00;;;;;;5018501;28;20181;-85
2023/05/08 12:38:04;;;;;;;17.40;16.05;;;20.40;47.00;;;;;;5018047;28;20253;-85
2023/05/08 12:40:51;;;;;;;16.63;15.52;;;20.60;43.20;;;;;;5017323;28;20703;-85